This is the latest recevied weather packets stored in our database for station/object VE3TEJ. If no packets are shown the sender has not sent any weather packets the latest 1 day(s).
| Time | Temp. | Humidity | Pressure | Rain* | Wind** | Luminosity | Snow |
|---|---|---|---|---|---|---|---|
| 1778003949 | 12.22° C | 63% | 1005.5 hPa | 0 mm | 0.45 m/s, 289° | - | - |
| 1778003648 | 12.22° C | 63% | 1005.6 hPa | 0 mm | 0.89 m/s, 302° | - | - |
| 1778003348 | 12.22° C | 60% | 1005.4 hPa | 0 mm | 0.45 m/s, 285° | - | - |
| 1778003047 | 12.78° C | 59% | 1005.7 hPa | 0 mm | 0.45 m/s, 287° | - | - |
| 1778002747 | 12.78° C | 58% | 1005.8 hPa | 0 mm | 0.89 m/s, 278° | - | - |
| 1778002449 | 12.78° C | 59% | 1005.8 hPa | 0 mm | 0.45 m/s, 281° | - | - |
| 1778002148 | 13.33° C | 58% | 1005.5 hPa | 0 mm | 1.34 m/s, 277° | - | - |
| 1778001848 | 13.33° C | 60% | 1005.3 hPa | 0 mm | 0.89 m/s, 275° | - | - |
| 1778001547 | 13.89° C | 60% | 1005.3 hPa | 0 mm | 0.89 m/s, 274° | - | - |
| 1778001247 | 13.89° C | 60% | 1005 hPa | 0 mm | 0.89 m/s, 289° | - | - |
| 1778000949 | 13.89° C | 60% | 1004.9 hPa | 0 mm | 0.45 m/s, 273° | - | - |
| 1778000648 | 14.44° C | 62% | 1004.9 hPa | 0 mm | 0.89 m/s, 291° | - | - |
| 1778000348 | 14.44° C | 60% | 1004.7 hPa | 0 mm | 0.89 m/s, 282° | - | - |
| 1778000047 | 14.44° C | 60% | 1004.7 hPa | 0 mm | 0.45 m/s, 280° | - | - |
| 1777999747 | 14.44° C | 62% | 1004.6 hPa | 0 mm | 0.45 m/s, 293° | - | - |
| 1777999448 | 15° C | 60% | 1004.6 hPa | 0 mm | 0.89 m/s, 279° | - | - |
| 1777999148 | 15° C | 61% | 1004.5 hPa | 0 mm | 0.45 m/s, 280° | - | - |
| 1777998848 | 15° C | 62% | 1004.4 hPa | 0 mm | 0 m/s | - | - |
| 1777998548 | 14.44° C | 60% | 1004.6 hPa | 0 mm | 0.45 m/s, 275° | - | - |
| 1777998248 | 13.89° C | 60% | 1004.8 hPa | 0 mm | 0.45 m/s, 283° | - | - |
| 1777997947 | 13.89° C | 61% | 1004.6 hPa | 0 mm | 0.89 m/s, 275° | - | - |
| 1777997647 | 14.44° C | 61% | 1004.7 hPa | 0 mm | 0.89 m/s, 281° | - | - |
| 1777997347 | 13.89° C | 61% | 1004.7 hPa | 0 mm | 0.45 m/s, 281° | - | - |
| 1777997047 | 13.89° C | 61% | 1004.9 hPa | 0 mm | 0.45 m/s, 288° | - | - |
| 1777996749 | 13.89° C | 60% | 1005 hPa | 0 mm | 0.45 m/s, 282° | - | - |
* Rain latest hour (hover to see other rain measurements)
** Current wind speed in m/s (hover to see current wind gust speed)